Here is the Quick Look data you requested

The Data originates at the National Weather Service, and is made available here by the UAlbany Department of Atmospheric and Environmental Sciences

Surface Observations

KDMW 240500Z AUTO 00000KT 10SM SCT085 21/17 A2992 RMK AO2=
KDMW 240520Z AUTO 00000KT 10SM SCT085 20/17 A2991 RMK AO2=
KDMW 240540Z AUTO 00000KT 10SM CLR 20/17 A2990 RMK AO2=
KDMW 240600Z AUTO 00000KT 10SM CLR 19/17 A2990 RMK AO2=
KDMW 240620Z AUTO 00000KT 10SM CLR 20/18 A2989 RMK AO2=
KDMW 240640Z AUTO 00000KT 10SM CLR 19/18 A2989 RMK AO2=
KDMW 240700Z AUTO 00000KT 10SM SCT065 19/18 A2989 RMK AO2=
KDMW 240720Z AUTO 00000KT 10SM BKN065 19/18 A2989 RMK AO2=
KDMW 240740Z AUTO 00000KT 10SM SCT065 SCT070 19/18 A2989 RMK AO2=
KDMW 240800Z AUTO 00000KT 10SM CLR 19/18 A2989 RMK AO2=
KDMW 240820Z AUTO 00000KT 10SM CLR 19/18 A2988 RMK AO2=
KDMW 240840Z AUTO 00000KT 10SM CLR 19/18 A2988 RMK AO2=
KDMW 240900Z AUTO 00000KT 10SM SCT055 19/18 A2989 RMK AO2=
KDMW 240920Z AUTO 00000KT 10SM SCT055 19/18 A2989 RMK AO2=
KDMW 240940Z AUTO 00000KT 10SM CLR 19/18 A2990 RMK AO2=
KDMW 241000Z AUTO 00000KT 10SM CLR 19/18 A2990 RMK AO2=
KDMW 241020Z AUTO 00000KT 10SM CLR 19/18 A2990 RMK AO2=
KDMW 241040Z AUTO 00000KT 10SM CLR 19/18 A2991 RMK AO2 LTG DSNT W=
KDMW 241100Z AUTO 00000KT 10SM SCT100 20/18 A2991 RMK AO2=
KDMW 241120Z AUTO 00000KT 10SM BKN100 20/18 A2992 RMK AO2 LTG DSNT SE=
KDMW 241145Z AUTO 00000KT 10SM BKN100 21/18 A2993 RMK AO2 LTG DSNT SE AND W=
KDMW 241205Z AUTO 02003KT 10SM SCT110 21/18 A2992 RMK AO2=
KDMW 241225Z AUTO 36003KT 10SM CLR 23/17 A2992 RMK AO2=
KDMW 241245Z AUTO 01006KT 10SM CLR 24/16 A2993 RMK AO2=
KDMW 241305Z AUTO 01005KT 10SM CLR 24/16 A2993 RMK AO2=
KDMW 241325Z AUTO 06004KT 10SM CLR 25/15 A2992 RMK AO2 LTG DSNT S=
KDMW 241345Z AUTO 04005KT 10SM CLR 26/13 A2992 RMK AO2=
KDMW 241400Z AUTO 05004KT 10SM CLR 27/13 A2991 RMK AO2=
KDMW 241420Z AUTO 05007KT 10SM CLR 26/11 A2992 RMK AO2=
KDMW 241445Z AUTO 04007KT 10SM CLR 26/11 A2991 RMK AO2=
KDMW 241505Z AUTO 06006KT 10SM CLR 27/11 A2992 RMK AO2=
KDMW 241525Z AUTO 06005KT 10SM CLR 27/11 A2992 RMK AO2=
KDMW 241540Z AUTO 04003KT 10SM CLR 27/11 A2991 RMK AO2=
KDMW 241600Z AUTO 09003KT 10SM CLR 27/11 A2991 RMK AO2=
KDMW 241620Z AUTO 00000KT 10SM SCT060 27/10 A2991 RMK AO2=
KDMW 241640Z AUTO 00000KT 10SM SCT060 27/10 A2990 RMK AO2=
KDMW 241700Z AUTO 00000KT 10SM CLR 28/11 A2990 RMK AO2=
KDMW 241725Z AUTO 27003KT 10SM SCT060 29/11 A2989 RMK AO2=
KDMW 241745Z AUTO 35005KT 10SM CLR 29/11 A2988 RMK AO2 LTG DSNT S=
KDMW 241805Z AUTO 29005KT 10SM CLR 29/11 A2988 RMK AO2=
KDMW 241825Z AUTO 20003KT 10SM SCT060 29/11 A2987 RMK AO2=
KDMW 241845Z AUTO 00000KT 10SM SCT060 29/12 A2988 RMK AO2=
KDMW 241905Z AUTO 00000KT 10SM SCT060 30/12 A2988 RMK AO2=
KDMW 241925Z AUTO 01003KT 10SM CLR 30/12 A2987 RMK AO2=
KDMW 241945Z AUTO 00000KT 10SM BKN070 29/12 A2987 RMK AO2=
KDMW 242005Z AUTO 22004KT 10SM SCT070 31/12 A2986 RMK AO2=
KDMW 242025Z AUTO 31004KT 10SM CLR 31/12 A2986 RMK AO2=
KDMW 242045Z AUTO 32005KT 10SM SCT070 31/12 A2986 RMK AO2=
KDMW 242105Z AUTO 29005KT 10SM CLR 31/12 A2986 RMK AO2=
KDMW 242125Z AUTO 00000KT 10SM CLR 31/12 A2985 RMK AO2=
KDMW 242145Z AUTO 31003KT 10SM CLR 31/13 A2985 RMK AO2=
KDMW 242200Z AUTO 30004KT 10SM CLR 31/13 A2985 RMK AO2=
KDMW 242220Z AUTO 00000KT 10SM CLR 30/12 A2985 RMK AO2=
KDMW 242240Z AUTO 00000KT 10SM CLR 30/12 A2985 RMK AO2=
KDMW 242300Z AUTO 26003KT 10SM CLR 30/13 A2984 RMK AO2=
KDMW 242320Z AUTO 00000KT 10SM CLR 30/13 A2984 RMK AO2=
KDMW 242340Z AUTO 00000KT 10SM CLR 29/13 A2984 RMK AO2=
KDMW 250005Z AUTO 00000KT 10SM CLR 28/13 A2985 RMK AO2=
KDMW 250020Z AUTO 00000KT 10SM CLR 28/14 A2985 RMK AO2=
KDMW 250045Z AUTO 00000KT 10SM CLR 26/14 A2985 RMK AO2=
KDMW 250105Z AUTO 00000KT 10SM CLR 26/14 A2986 RMK AO2=
KDMW 250125Z AUTO 00000KT 10SM CLR 25/14 A2987 RMK AO2=
KDMW 250145Z AUTO 00000KT 10SM CLR 24/15 A2987 RMK AO2=
KDMW 250205Z AUTO 00000KT 10SM CLR 24/14 A2988 RMK AO2=
KDMW 250225Z AUTO 00000KT 10SM CLR 24/14 A2989 RMK AO2 LTG DSNT SE=
KDMW 250245Z AUTO 00000KT 10SM CLR 23/14 A2989 RMK AO2=
KDMW 250305Z AUTO 00000KT 10SM CLR 23/16 A2989 RMK AO2=
KDMW 250325Z AUTO 00000KT 10SM CLR 22/16 A2989 RMK AO2=
KDMW 250345Z AUTO 00000KT 10SM CLR 22/16 A2989 RMK AO2=
KDMW 250420Z AUTO 00000KT 10SM CLR 21/16 A2989 RMK AO2=
KDMW 250440Z AUTO 25004KT 10SM CLR 23/15 A2989 RMK AO2=
KDMW 250500Z AUTO 23004KT 10SM CLR 22/15 A2989 RMK AO2 LTG DSNT S=
KDMW 250520Z AUTO 23003KT 10SM CLR 22/15 A2989 RMK AO2=
KDMW 250540Z AUTO 00000KT 10SM CLR 21/16 A2988 RMK AO2=
KDMW 250600Z AUTO 23003KT 10SM CLR 22/16 A2988 RMK AO2=
KDMW 250620Z AUTO 00000KT 10SM CLR 21/16 A2987 RMK AO2 LTG DSNT=
KDMW 250640Z AUTO 00000KT 10SM CLR 21/16 A2987 RMK AO2=
KDMW 250700Z AUTO 00000KT 10SM CLR 20/16 A2986 RMK AO2=
KDMW 250720Z AUTO 00000KT 10SM CLR 19/16 A2985 RMK AO2 LTG DSNT SE=
KDMW 250740Z AUTO 00000KT 10SM CLR 20/16 A2986 RMK AO2=
KDMW 250805Z AUTO 00000KT 10SM CLR 19/16 A2986 RMK AO2=
KDMW 250825Z AUTO 00000KT 10SM CLR 19/16 A2986 RMK AO2=
KDMW 250845Z AUTO 00000KT 10SM CLR 19/16 A2986 RMK AO2=
KDMW 250900Z AUTO 00000KT 10SM CLR 19/16 A2987 RMK AO2 LTG DSNT NW=
KDMW 250925Z AUTO 00000KT 10SM CLR 19/16 A2987 RMK AO2 LTG DSNT SW=
KDMW 250940Z AUTO 00000KT 10SM CLR 19/16 A2987 RMK AO2=
KDMW 251000Z AUTO 00000KT 10SM CLR 18/16 A2987 RMK AO2=
KDMW 251020Z AUTO 00000KT 10SM CLR 19/16 A2988 RMK AO2=
KDMW 251040Z AUTO 00000KT 10SM CLR 19/16 A2988 RMK AO2=
KDMW 251100Z AUTO 00000KT 10SM CLR 19/17 A2988 RMK AO2=
KDMW 251120Z AUTO 00000KT 10SM CLR 21/17 A2988 RMK AO2=
KDMW 251140Z AUTO 00000KT 10SM CLR 22/17 A2989 RMK AO2=